KAXN/AXN METAR and TAF weather

Enter ICAO airport designator
Station Type Date Time Source
KAXN METAR 2019/02/23 17:53 UTC NOAA

KAXN 231753Z AUTO 18003KT 1 1/4SM -SN OVC005 M02/M05 A2989 RMK AO2 SNB51 SLP142 P0000 60000 T10221050 11022 21039 56015


Station Type Date Time Source
KAXN Decoded METAR 2019/02/23 17:53 UTC NOAA

CHANDLER FIELD, MN, United States (KAXN) 45-52N 095-24W 433M
Feb 23, 2019 - 12:53 PM EST / 2019.02.23 1753 UTC
Wind: from the S (180 degrees) at 3 MPH (3 KT):0
Visibility: 1 1/4 mile(s):0
Sky conditions: overcast
Weather: light snow
Precipitation last hour: A trace
Temperature: 28.0 F (-2.2 C)
Dew Point: 23.0 F (-5.0 C)
Relative Humidity: 81%
Pressure (altimeter): 29.89 in. Hg (1012 hPa)
Pressure tendency: 0.04 inches (1.5 hPa) lower than three hours ago
ob: KAXN 231753Z AUTO 18003KT 1 1/4SM -SN OVC005 M02/M05 A2989 RMK AO2 SNB51 SLP142 P0000 60000 T10221050 11022 21039 56015
cycle: 18

Station Type Date Time Source
KAXN TAF 2019/02/23 18:40 UTC NOAA

TAF KAXN 231738Z 2318/2418 15004KT 2SM BR OVC006
FM232000 33011KT P6SM OVC008
FM240300 33016G24KT P6SM OVC008
FM240900 31020G30KT 2SM BLSN OVC008
FM241500 32025G35KT 2SM BLSN BKN015


Example: see airport list